Time;durP1;ratioP1;P1;durP2;ratioP2;P2;SDS_P1;SDS_P2;PMS_P1;PMS_P2;Temp;Humidity;BMP_temperature;BMP_pressure;BME280_temperature;BME280_humidity;BME280_pressure;Samples;Min_cycle;Max_cycle;Signal;HPM_P1;HPM_P2
2021/10/24 00:00:33;;;;;;;74.80;23.90;;;;;;;6.67;57.13;99915.36;27179;1217;3049746;-71
2021/10/24 00:03:02;;;;;;;84.10;25.80;;;;;;;6.67;57.12;99917.63;27261;1216;3027736;-74
2021/10/24 00:05:31;;;;;;;77.50;24.80;;;;;;;6.75;56.76;99922.58;27264;1216;3057806;-69
2021/10/24 00:08:00;;;;;;;80.50;25.50;;;;;;;6.75;56.55;99921.16;27205;1217;3027377;-74
2021/10/24 00:10:39;;;;;;;81.80;25.60;;;;;;;6.79;55.89;99915.60;27243;1216;3053776;-72
2021/10/24 00:13:08;;;;;;;95.20;28.40;;;;;;;6.75;56.08;99916.65;27241;1216;3025713;-74
2021/10/24 00:15:38;;;;;;;71.70;20.60;;;;;;;6.77;55.90;99918.81;27206;1216;3054208;-74
2021/10/24 00:18:07;;;;;;;61.40;19.80;;;;;;;6.74;55.95;99916.48;27180;1217;3026249;-72
2021/10/24 00:20:36;;;;;;;49.30;18.50;;;;;;;6.69;55.97;99913.02;27225;1216;3026403;-72
2021/10/24 00:23:05;;;;;;;52.60;15.90;;;;;;;6.69;55.87;99909.70;27240;1217;3051804;-72
2021/10/24 00:25:35;;;;;;;43.00;14.50;;;;;;;6.67;55.68;99915.86;27238;1217;3026381;-69
2021/10/24 00:28:04;;;;;;;44.40;14.80;;;;;;;6.71;55.04;99914.15;27223;1216;3026450;-70
2021/10/24 00:30:34;;;;;;;44.70;16.60;;;;;;;6.70;55.33;99911.79;27205;1217;3026469;-74
2021/10/24 00:33:04;;;;;;;50.20;14.40;;;;;;;6.70;55.24;99915.56;27245;1220;3051116;-75
2021/10/24 00:35:35;;;;;;;43.40;15.10;;;;;;;6.71;54.96;99917.46;27239;1217;3026050;-68
2021/10/24 00:38:04;;;;;;;38.90;14.80;;;;;;;6.67;54.64;99913.43;27206;1211;3026232;-73
2021/10/24 00:40:34;;;;;;;44.80;15.50;;;;;;;6.69;54.86;99911.45;27254;1216;3053029;-75
2021/10/24 00:43:03;;;;;;;49.00;15.40;;;;;;;6.80;54.43;99909.48;27248;1209;3026265;-71
2021/10/24 00:45:34;;;;;;;57.30;15.70;;;;;;;6.81;54.22;99915.86;27317;1217;3053981;-72
2021/10/24 00:48:03;;;;;;;43.80;15.10;;;;;;;6.82;54.23;99917.60;27267;1216;3026475;-73
2021/10/24 00:50:33;;;;;;;66.20;21.80;;;;;;;6.82;54.32;99917.23;27222;1217;3047868;-75
2021/10/24 00:53:03;;;;;;;100.60;29.30;;;;;;;6.81;54.18;99917.10;27242;1217;3026753;-73
2021/10/24 00:55:33;;;;;;;73.90;24.00;;;;;;;6.82;54.22;99920.91;27226;1216;3026454;-75
2021/10/24 00:58:05;;;;;;;58.90;19.60;;;;;;;6.83;54.05;99918.96;27245;1217;3026527;-73
2021/10/24 01:00:34;;;;;;;38.30;13.90;;;;;;;6.75;54.13;99921.14;27294;1211;3028390;-74
2021/10/24 01:03:03;;;;;;;39.10;15.00;;;;;;;6.71;54.29;99922.88;27229;1217;3026231;-69
2021/10/24 01:05:34;;;;;;;39.30;13.70;;;;;;;6.62;54.67;99925.66;27247;1217;3026840;-73
2021/10/24 01:08:03;;;;;;;36.00;11.90;;;;;;;6.63;54.58;99924.39;27240;1217;3026825;-73
2021/10/24 01:10:32;;;;;;;25.70;10.90;;;;;;;6.63;54.49;99930.48;27271;1217;3027977;-72
2021/10/24 01:13:01;;;;;;;30.40;10.20;;;;;;;6.55;54.63;99936.34;27232;1217;3050473;-71
2021/10/24 01:15:30;;;;;;;19.90;8.30;;;;;;;6.47;54.75;99937.86;27217;1216;3027462;-71
2021/10/24 01:18:00;;;;;;;22.80;9.00;;;;;;;6.45;54.96;99925.58;27260;1218;3051571;-72
2021/10/24 01:20:29;;;;;;;20.50;7.50;;;;;;;6.40;54.93;99929.59;27246;1216;3028512;-69
2021/10/24 01:22:59;;;;;;;18.20;6.80;;;;;;;6.38;55.03;99927.04;27212;1218;3026229;-69
2021/10/24 01:25:28;;;;;;;16.00;6.70;;;;;;;6.37;55.17;99927.77;27308;1217;3025957;-70
2021/10/24 01:27:57;;;;;;;19.90;7.60;;;;;;;6.33;54.86;99925.13;27283;1217;3053121;-71
2021/10/24 01:30:27;;;;;;;23.20;6.90;;;;;;;6.32;54.95;99927.26;27254;1217;3028256;-73
2021/10/24 01:32:56;;;;;;;19.40;7.40;;;;;;;6.31;55.23;99931.27;27289;1217;3026843;-76
2021/10/24 01:35:27;;;;;;;17.50;7.80;;;;;;;6.35;54.88;99932.87;27266;1216;3050448;-68
2021/10/24 01:37:58;;;;;;;14.50;6.60;;;;;;;6.34;55.02;99927.35;27187;1217;3026050;-71
2021/10/24 01:40:27;;;;;;;16.30;6.80;;;;;;;6.32;55.16;99928.09;27281;1218;3028699;-71
2021/10/24 01:42:56;;;;;;;15.50;6.70;;;;;;;6.30;55.22;99932.20;27294;1217;3026342;-67
2021/10/24 01:45:28;;;;;;;15.50;6.50;;;;;;;6.24;55.42;99942.66;27269;1216;3068816;-70
2021/10/24 01:48:07;;;;;;;18.80;6.90;;;;;;;6.26;55.29;99942.07;27258;1217;3049196;-68
2021/10/24 01:50:36;;;;;;;12.00;6.00;;;;;;;6.28;55.22;99941.84;27294;1217;3026525;-70
2021/10/24 01:53:06;;;;;;;16.30;6.10;;;;;;;6.27;55.14;99947.09;27266;1216;3067523;-72
2021/10/24 01:55:36;;;;;;;14.50;6.00;;;;;;;6.25;55.13;99953.60;27322;1217;3026461;-73
2021/10/24 01:58:06;;;;;;;17.20;6.30;;;;;;;6.26;54.80;99948.84;27294;1211;3027601;-74
2021/10/24 02:00:37;;;;;;;17.00;5.70;;;;;;;6.25;54.70;99950.28;27254;1217;3026460;-72
2021/10/24 02:03:07;;;;;;;15.60;6.40;;;;;;;6.31;54.66;99943.48;27261;1217;3026085;-76
2021/10/24 02:05:56;;;;;;;19.00;6.70;;;;;;;6.29;54.78;99941.25;27257;1217;3050717;-72
2021/10/24 02:08:27;;;;;;;16.00;6.10;;;;;;;6.32;54.76;99943.95;27310;1217;3026270;-71
2021/10/24 02:10:57;;;;;;;15.00;6.00;;;;;;;6.29;54.58;99948.77;27312;1217;3026274;-74
2021/10/24 02:13:33;;;;;;;15.80;5.70;;;;;;;6.30;54.89;99946.64;27243;1217;3070764;-75
2021/10/24 02:16:07;;;;;;;17.80;5.60;;;;;;;6.30;54.83;99939.66;27250;1218;3051364;-69
2021/10/24 02:18:38;;;;;;;12.10;5.50;;;;;;;6.30;54.83;99938.43;27320;1217;3028098;-73
2021/10/24 02:21:08;;;;;;;17.20;5.70;;;;;;;6.34;54.71;99929.97;27264;1218;3026080;-73
2021/10/24 02:23:41;;;;;;;14.10;5.90;;;;;;;6.35;54.62;99940.17;27365;1218;3026256;-70
2021/10/24 02:26:14;;;;;;;15.00;5.70;;;;;;;6.32;55.06;99943.61;27268;1216;3027042;-76
2021/10/24 02:28:43;;;;;;;16.50;6.60;;;;;;;6.31;55.53;99952.53;27238;1217;3026991;-73
2021/10/24 02:31:12;;;;;;;17.20;7.00;;;;;;;6.26;55.26;99952.00;27348;1217;3026202;-68
2021/10/24 02:33:50;;;;;;;14.50;5.50;;;;;;;6.23;54.91;99947.91;27312;1217;3050619;-65
2021/10/24 02:36:43;;;;;;;13.90;5.50;;;;;;;6.26;55.12;99950.77;27315;1217;3052204;-69
2021/10/24 02:39:12;;;;;;;18.30;5.50;;;;;;;6.27;55.11;99955.61;27263;1216;3025686;-72
2021/10/24 02:41:42;;;;;;;14.40;5.70;;;;;;;6.24;54.94;99951.89;27272;1216;3026584;-74
2021/10/24 02:44:13;;;;;;;13.60;5.10;;;;;;;6.26;54.83;99952.50;27275;1218;3025906;-72
2021/10/24 02:46:48;;;;;;;18.30;5.50;;;;;;;6.28;55.17;99956.45;27318;1217;3050784;-70
2021/10/24 02:49:17;;;;;;;15.70;6.30;;;;;;;6.22;55.88;99956.83;27332;1213;3026163;-69
2021/10/24 02:51:54;;;;;;;10.30;5.10;;;;;;;6.21;55.82;99953.02;27331;1218;3051141;-72
2021/10/24 02:54:24;;;;;;;14.80;5.50;;;;;;;6.24;55.69;99951.35;27319;1217;3025928;-69
2021/10/24 02:56:55;;;;;;;16.70;6.20;;;;;;;6.24;55.83;99954.67;27311;1216;3028697;-71
2021/10/24 02:59:24;;;;;;;12.40;5.60;;;;;;;6.19;56.05;99954.67;27252;1217;3027689;-71
2021/10/24 03:01:53;;;;;;;17.30;6.00;;;;;;;6.20;56.63;99956.88;27243;1218;3026175;-71
2021/10/24 03:04:22;;;;;;;15.70;6.60;;;;;;;6.21;56.83;99949.04;27287;1216;3026570;-69
2021/10/24 03:06:52;;;;;;;15.00;5.90;;;;;;;6.22;57.11;99947.42;27264;1216;3057701;-72
2021/10/24 03:09:21;;;;;;;16.00;5.60;;;;;;;6.27;56.67;99946.91;27333;1218;3029357;-75
2021/10/24 03:11:50;;;;;;;18.00;5.20;;;;;;;6.28;56.60;99943.56;27311;1217;3025860;-72
2021/10/24 03:14:39;;;;;;;13.80;5.40;;;;;;;6.31;56.71;99947.31;27293;1217;3056090;-67
2021/10/24 03:17:09;;;;;;;15.10;5.90;;;;;;;6.29;56.78;99953.77;27294;1216;3028349;-74
2021/10/24 03:19:41;;;;;;;18.80;6.20;;;;;;;6.30;56.95;99956.35;27328;1216;3025704;-72
2021/10/24 03:22:10;;;;;;;19.30;6.30;;;;;;;6.27;57.17;99958.93;27313;1216;3026310;-74
2021/10/24 03:24:42;;;;;;;18.90;6.20;;;;;;;6.26;57.07;99958.80;27287;1217;3026473;-69
2021/10/24 03:27:11;;;;;;;15.10;6.30;;;;;;;6.31;56.40;99963.28;27300;1218;3026454;-72
2021/10/24 03:29:41;;;;;;;14.60;5.40;;;;;;;6.30;56.14;99962.80;27332;1217;3052833;-67
2021/10/24 03:32:11;;;;;;;14.30;5.60;;;;;;;6.30;56.04;99965.58;27263;1216;3026164;-69
2021/10/24 03:34:39;;;;;;;16.60;5.90;;;;;;;6.35;56.12;99964.20;27338;1216;3025785;-71
2021/10/24 03:37:09;;;;;;;18.00;5.90;;;;;;;6.34;56.13;99964.23;27257;1218;3053467;-71
2021/10/24 03:39:38;;;;;;;12.50;5.60;;;;;;;6.32;56.77;99965.00;27310;1216;3026378;-71
2021/10/24 03:42:07;;;;;;;15.00;6.30;;;;;;;6.35;56.80;99970.96;27352;1216;3052933;-72
2021/10/24 03:44:37;;;;;;;16.30;6.60;;;;;;;6.37;57.05;99968.14;27382;1209;3026368;-68
2021/10/24 03:47:07;;;;;;;18.20;6.00;;;;;;;6.38;56.53;99969.15;27355;1209;3025644;-65
2021/10/24 03:49:36;;;;;;;14.30;5.60;;;;;;;6.38;56.53;99974.55;27282;1218;3026106;-69
2021/10/24 03:52:05;;;;;;;12.40;5.80;;;;;;;6.36;56.62;99979.82;27282;1216;3026050;-69
2021/10/24 03:54:35;;;;;;;21.60;6.00;;;;;;;6.41;56.03;99982.46;27351;1217;3069762;-71
2021/10/24 03:57:04;;;;;;;20.10;6.30;;;;;;;6.43;55.89;99984.30;27283;1218;3025796;-67
2021/10/24 03:59:33;;;;;;;19.50;6.40;;;;;;;6.43;56.25;99983.77;27292;1216;3050085;-70
2021/10/24 04:02:02;;;;;;;18.60;6.50;;;;;;;6.43;56.43;99993.52;27276;1218;3027323;-69
2021/10/24 04:04:31;;;;;;;20.90;6.80;;;;;;;6.47;56.69;99993.89;27312;1219;3053021;-72
2021/10/24 04:07:01;;;;;;;18.70;7.10;;;;;;;6.49;56.66;99996.05;27266;1209;3026502;-70
2021/10/24 04:09:31;;;;;;;19.70;7.90;;;;;;;6.49;57.00;99996.26;27291;1219;3049689;-69
2021/10/24 04:12:03;;;;;;;17.20;7.50;;;;;;;6.45;57.44;99999.02;27324;1219;3026188;-70
2021/10/24 04:14:33;;;;;;;20.70;7.90;;;;;;;6.41;57.63;100003.85;27306;1216;3025829;-71
2021/10/24 04:17:02;;;;;;;20.90;7.90;;;;;;;6.44;57.95;100010.52;27297;1218;3026752;-68
2021/10/24 04:19:39;;;;;;;29.90;8.70;;;;;;;6.38;58.23;100013.51;27323;1216;3051644;-67
2021/10/24 04:22:08;;;;;;;33.30;8.70;;;;;;;6.42;58.05;100011.66;27356;1218;3026523;-70
2021/10/24 04:24:38;;;;;;;24.40;9.40;;;;;;;6.37;57.96;100009.38;27301;1219;3068345;-73
2021/10/24 04:27:07;;;;;;;26.30;8.80;;;;;;;6.33;58.29;100004.12;27352;1216;3026612;-75
2021/10/24 04:29:35;;;;;;;23.80;8.40;;;;;;;6.29;58.30;100005.46;27342;1216;3050939;-70
2021/10/24 04:32:05;;;;;;;22.50;9.80;;;;;;;6.32;58.30;100005.52;27376;1216;3025970;-74
2021/10/24 04:34:34;;;;;;;28.00;10.40;;;;;;;6.29;58.32;100009.11;27302;1217;3026571;-69
2021/10/24 04:37:03;;;;;;;28.00;10.40;;;;;;;6.32;58.43;100004.30;27415;1216;3026221;-67
2021/10/24 04:39:32;;;;;;;32.50;9.50;;;;;;;6.28;58.76;100006.04;27381;1217;3068045;-73
2021/10/24 04:42:01;;;;;;;32.50;10.20;;;;;;;6.29;58.74;100009.84;27345;1216;3027990;-67
2021/10/24 04:44:30;;;;;;;28.30;11.00;;;;;;;6.27;58.87;100012.16;27405;1217;3052860;-70
2021/10/24 04:46:59;;;;;;;32.80;11.20;;;;;;;6.31;58.82;100014.61;27379;1218;3026490;-73
2021/10/24 04:49:29;;;;;;;38.20;11.00;;;;;;;6.34;58.81;100019.05;27391;1216;3052376;-74
2021/10/24 04:51:58;;;;;;;34.30;10.50;;;;;;;6.36;58.56;100020.70;27307;1209;3026285;-69
2021/10/24 04:54:27;;;;;;;31.00;11.10;;;;;;;6.38;58.59;100021.68;27247;1218;3028480;-70
2021/10/24 04:56:56;;;;;;;29.20;10.30;;;;;;;6.39;58.69;100020.97;27330;1217;3028701;-69
2021/10/24 04:59:25;;;;;;;27.00;10.70;;;;;;;6.41;58.34;100021.92;27262;1217;3049918;-70
2021/10/24 05:01:55;;;;;;;38.90;10.60;;;;;;;6.38;58.46;100016.29;27330;1216;3026504;-72
2021/10/24 05:04:23;;;;;;;26.90;9.70;;;;;;;6.35;58.05;100021.96;27310;1219;3025882;-68
2021/10/24 05:06:53;;;;;;;29.20;11.00;;;;;;;6.41;57.88;100024.02;27280;1216;3053124;-72
2021/10/24 05:09:23;;;;;;;38.40;11.50;;;;;;;6.43;57.76;100027.98;27285;1216;3028338;-70
2021/10/24 05:11:54;;;;;;;32.90;10.80;;;;;;;6.43;57.56;100030.92;27339;1216;3026632;-68
2021/10/24 05:14:23;;;;;;;35.40;9.80;;;;;;;6.42;57.57;100034.45;27411;1216;3027839;-72
2021/10/24 05:16:52;;;;;;;25.60;9.60;;;;;;;6.47;57.46;100034.26;27388;1216;3068238;-69
2021/10/24 05:19:21;;;;;;;34.20;10.50;;;;;;;6.51;57.62;100031.84;27494;1216;3026575;-68
2021/10/24 05:21:50;;;;;;;46.30;10.20;;;;;;;6.54;57.51;100039.75;27422;1209;3050328;-74
2021/10/24 05:24:19;;;;;;;35.00;11.30;;;;;;;6.51;57.96;100048.21;27342;1216;3026806;-69
2021/10/24 05:26:49;;;;;;;23.00;9.90;;;;;;;6.46;57.72;100054.50;27330;1216;3052028;-71
2021/10/24 05:29:18;;;;;;;26.90;9.50;;;;;;;6.45;57.90;100061.65;27397;1216;3027105;-73
2021/10/24 05:31:47;;;;;;;32.70;10.40;;;;;;;6.37;58.67;100061.73;27438;1218;3025905;-67
2021/10/24 05:34:20;;;;;;;27.10;10.10;;;;;;;6.41;58.77;100066.48;27381;1216;3026636;-73
2021/10/24 05:36:57;;;;;;;33.00;10.90;;;;;;;6.33;59.54;100066.92;27354;1216;3051801;-69
2021/10/24 05:39:26;;;;;;;34.80;11.30;;;;;;;6.31;59.70;100066.48;27379;1216;3026548;-71
2021/10/24 05:41:55;;;;;;;29.70;12.50;;;;;;;6.25;60.17;100074.67;27397;1218;3048160;-66
2021/10/24 05:44:24;;;;;;;27.40;11.60;;;;;;;6.31;60.50;100074.80;27417;1213;3027650;-69
2021/10/24 05:47:00;;;;;;;34.60;13.50;;;;;;;6.29;60.87;100078.37;27293;1216;3070710;-68
2021/10/24 05:49:30;;;;;;;31.80;11.20;;;;;;;6.29;61.35;100075.60;27341;1216;3028151;-73
2021/10/24 05:51:59;;;;;;;32.70;10.80;;;;;;;6.31;61.26;100071.52;27365;1213;3027979;-73
2021/10/24 05:54:28;;;;;;;29.90;10.50;;;;;;;6.36;61.26;100079.17;27344;1218;3067920;-72
2021/10/24 05:56:58;;;;;;;28.00;10.60;;;;;;;6.36;61.61;100075.19;27288;1217;3026582;-71
2021/10/24 05:59:47;;;;;;;24.30;9.20;;;;;;;6.37;61.75;100079.48;27347;1217;3056405;-69
2021/10/24 06:02:21;;;;;;;33.10;10.70;;;;;;;6.39;61.71;100075.06;27362;1216;3050657;-73
2021/10/24 06:05:09;;;;;;;26.40;9.70;;;;;;;6.42;61.56;100080.36;27350;1218;3056057;-70
2021/10/24 06:07:38;;;;;;;25.30;9.50;;;;;;;6.41;61.80;100076.58;27314;1218;3026505;-68
2021/10/24 06:10:22;;;;;;;19.50;9.00;;;;;;;6.42;61.99;100083.51;27313;1217;3052687;-68
2021/10/24 06:12:51;;;;;;;27.00;10.60;;;;;;;6.52;61.79;100087.16;27328;1218;3029829;-71
2021/10/24 06:15:22;;;;;;;25.80;10.90;;;;;;;6.53;61.70;100090.61;27336;1216;3026276;-66
2021/10/24 06:17:51;;;;;;;35.60;12.50;;;;;;;6.58;61.46;100095.00;27349;1216;3026964;-69
2021/10/24 06:20:22;;;;;;;37.30;11.60;;;;;;;6.52;61.53;100094.31;27351;1217;3025834;-74
2021/10/24 06:22:56;;;;;;;33.30;12.60;;;;;;;6.44;62.06;100090.73;27305;1216;3069373;-71
2021/10/24 06:25:25;;;;;;;33.40;14.00;;;;;;;6.54;61.54;100086.92;27287;1217;3025978;-75
2021/10/24 06:28:01;;;;;;;44.80;14.20;;;;;;;6.69;60.73;100081.03;27256;1217;3050473;-70
2021/10/24 06:30:31;;;;;;;38.80;14.20;;;;;;;6.69;60.76;100077.71;27231;1209;3026030;-71
2021/10/24 06:33:15;;;;;;;34.30;12.80;;;;;;;6.75;60.08;100080.65;27229;1216;3050478;-70
2021/10/24 06:36:04;;;;;;;31.50;13.40;;;;;;;6.80;59.51;100080.11;27248;1216;3054742;-71
2021/10/24 06:38:51;;;;;;;36.00;12.70;;;;;;;6.94;58.67;100082.77;27259;1216;3051840;-68
2021/10/24 06:41:34;;;;;;;35.70;12.10;;;;;;;7.12;58.33;100089.23;27280;1217;3058816;-77
2021/10/24 06:44:15;;;;;;;40.70;11.90;;;;;;;7.29;57.31;100094.05;27221;1216;3049990;-72
2021/10/24 06:47:03;;;;;;;28.50;11.00;;;;;;;7.36;57.10;100091.34;27247;1216;3055293;-71
2021/10/24 06:50:09;;;;;;;38.90;13.20;;;;;;;7.60;56.01;100091.30;27173;1222;3053121;-77
2021/10/24 06:53:02;;;;;;;39.80;15.70;;;;;;;7.68;55.18;100098.48;27231;1218;3071806;-67
2021/10/24 06:55:50;;;;;;;56.30;17.80;;;;;;;7.65;55.36;100098.08;27241;1217;3051054;-77
2021/10/24 06:58:38;;;;;;;52.50;17.20;;;;;;;7.64;55.73;100106.50;27234;1216;3054046;-72
2021/10/24 07:01:10;;;;;;;54.30;20.20;;;;;;;7.68;55.73;100109.33;27234;1216;3026339;-69
2021/10/24 07:03:57;;;;;;;53.10;19.70;;;;;;;7.96;55.41;100102.29;27277;1216;3056319;-74
2021/10/24 07:06:26;;;;;;;61.00;20.90;;;;;;;8.16;54.74;100105.36;27211;1219;3025710;-68
2021/10/24 07:09:14;;;;;;;48.80;18.40;;;;;;;8.21;54.45;100104.79;27211;1216;3052375;-72
2021/10/24 07:11:43;;;;;;;54.40;18.50;;;;;;;8.31;54.12;100108.38;27215;1217;3026145;-70
2021/10/24 07:14:12;;;;;;;43.80;15.90;;;;;;;8.37;53.43;100106.77;27236;1216;3025631;-66
2021/10/24 07:16:45;;;;;;;66.00;20.80;;;;;;;8.29;53.44;100105.86;27235;1216;3054073;-74
2021/10/24 07:19:14;;;;;;;66.20;23.40;;;;;;;8.37;53.23;100104.66;27270;1217;3025922;-69
2021/10/24 07:21:43;;;;;;;53.70;17.20;;;;;;;8.38;53.26;100101.85;27254;1216;3051721;-75
2021/10/24 07:24:20;;;;;;;42.00;16.40;;;;;;;8.40;53.12;100109.44;27246;1217;3052125;-69
2021/10/24 07:26:49;;;;;;;39.10;15.60;;;;;;;8.44;53.21;100102.65;27228;1218;3026520;-73
2021/10/24 07:29:18;;;;;;;49.80;15.10;;;;;;;8.53;53.13;100100.55;27269;1218;3053515;-70
2021/10/24 07:31:49;;;;;;;53.60;17.50;;;;;;;8.41;53.03;100109.75;27225;1218;3027530;-72
2021/10/24 07:34:56;;;;;;;72.10;21.60;;;;;;;8.19;53.85;100106.09;27161;1222;3059358;-72
2021/10/24 07:37:25;;;;;;;62.40;20.80;;;;;;;8.15;54.30;100104.52;27228;1218;3026340;-67
2021/10/24 07:39:55;;;;;;;70.00;23.50;;;;;;;8.05;54.89;100105.09;27256;1217;3025993;-66
2021/10/24 07:42:25;;;;;;;60.70;18.80;;;;;;;8.11;54.90;100103.97;27282;1216;3026670;-70
2021/10/24 07:44:56;;;;;;;56.30;17.20;;;;;;;8.13;54.82;100109.98;27281;1216;3027838;-75
2021/10/24 07:47:30;;;;;;;54.10;14.70;;;;;;;8.12;55.23;100103.23;27379;1219;3026178;-74
2021/10/24 07:49:59;;;;;;;;;;;;;;;8.12;55.54;100105.49;27406;1216;3051500;-68
2021/10/24 07:52:31;;;;;;;49.20;16.20;;;;;;;8.16;55.47;100091.23;27396;1217;3025890;-70
2021/10/24 07:55:04;;;;;;;35.40;12.90;;;;;;;8.16;55.28;100093.83;27359;1217;3055105;-70
2021/10/24 07:57:37;;;;;;;39.40;12.10;;;;;;;8.16;55.57;100090.31;27417;1216;3026136;-68
2021/10/24 08:00:06;;;;;;;35.50;11.90;;;;;;;8.36;55.12;100089.34;27439;1209;3026140;-69
2021/10/24 08:02:43;;;;;;;38.40;12.60;;;;;;;8.52;54.88;100086.78;27427;1216;3050065;-66
2021/10/24 08:05:17;;;;;;;36.00;11.90;;;;;;;8.71;54.17;100089.31;27403;1216;3070648;-74
2021/10/24 08:07:48;;;;;;;34.30;10.50;;;;;;;8.88;53.68;100090.30;27331;1216;3026650;-71
2021/10/24 08:10:17;;;;;;;28.20;9.30;;;;;;;9.05;52.82;100087.46;27489;1216;3026048;-69
2021/10/24 08:12:54;;;;;;;23.90;7.60;;;;;;;9.32;52.47;100090.98;27441;1216;3069647;-76
2021/10/24 08:15:23;;;;;;;21.10;7.00;;;;;;;9.42;51.72;100093.35;27476;1219;3025890;-71
2021/10/24 08:17:54;;;;;;;20.60;7.90;;;;;;;9.45;51.54;100092.68;27364;1216;3055494;-71
2021/10/24 08:20:44;;;;;;;28.60;9.30;;;;;;;9.59;51.05;100088.21;27254;1216;3072631;-70
2021/10/24 08:23:15;;;;;;;21.00;8.10;;;;;;;9.64;50.99;100095.14;27292;1218;3026316;-70
2021/10/24 08:25:44;;;;;;;35.50;11.30;;;;;;;9.51;51.10;100099.23;27262;1218;3027257;-72
2021/10/24 08:28:14;;;;;;;34.40;11.00;;;;;;;9.28;51.97;100096.95;27229;1217;3026210;-71
2021/10/24 08:31:06;;;;;;;22.30;8.40;;;;;;;9.16;50.69;100103.04;27261;1209;3057114;-73
2021/10/24 08:33:42;;;;;;;22.80;8.90;;;;;;;9.22;50.95;100100.53;27242;1216;3048829;-75
2021/10/24 08:36:11;;;;;;;27.10;9.10;;;;;;;9.29;50.95;100092.73;27260;1216;3027368;-71
2021/10/24 08:38:42;;;;;;;22.40;8.40;;;;;;;9.51;50.45;100089.79;27267;1216;3026018;-67
2021/10/24 08:41:12;;;;;;;31.20;9.70;;;;;;;9.57;50.42;100086.85;27248;1216;3048729;-75
2021/10/24 08:43:45;;;;;;;22.80;9.20;;;;;;;9.73;50.09;100084.04;27289;1216;3026489;-75
2021/10/24 08:46:16;;;;;;;26.40;10.50;;;;;;;9.76;49.89;100088.79;27234;1216;3027213;-71
2021/10/24 08:48:45;;;;;;;28.30;9.70;;;;;;;9.83;49.79;100086.17;27299;1216;3028392;-67
2021/10/24 08:51:17;;;;;;;19.60;7.10;;;;;;;10.06;49.04;100085.27;27281;1202;3027054;-68
2021/10/24 08:53:47;;;;;;;21.10;5.80;;;;;;;10.14;46.29;100081.73;27298;1216;3052973;-73
2021/10/24 08:56:17;;;;;;;13.80;4.90;;;;;;;10.22;45.87;100073.61;27259;1216;3026258;-78
2021/10/24 08:58:47;;;;;;;16.10;5.00;;;;;;;10.27;45.07;100069.70;27244;1216;3026119;-73
2021/10/24 09:01:16;;;;;;;17.40;4.70;;;;;;;10.35;45.22;100078.63;27285;1210;3026523;-71
2021/10/24 09:04:12;;;;;;;17.60;6.40;;;;;;;10.35;45.71;100072.32;27220;1218;3070330;-71
2021/10/24 09:06:52;;;;;;;12.80;5.00;;;;;;;10.45;45.76;100074.63;27246;1216;3051410;-75
2021/10/24 09:09:34;;;;;;;15.90;5.00;;;;;;;10.36;46.15;100084.85;27243;1216;3052127;-70
2021/10/24 09:12:07;;;;;;;15.10;5.10;;;;;;;10.43;46.14;100078.40;27297;1216;3051817;-66
2021/10/24 09:14:51;;;;;;;12.40;5.10;;;;;;;10.40;46.24;100080.84;27295;1216;3058749;-71
2021/10/24 09:17:21;;;;;;;11.70;5.30;;;;;;;10.19;46.40;100077.77;27286;1216;3051279;-75
2021/10/24 09:19:55;;;;;;;14.60;5.80;;;;;;;10.14;46.75;100070.67;27267;1209;3026039;-69
2021/10/24 09:22:31;;;;;;;14.10;5.80;;;;;;;10.17;47.03;100070.02;27283;1216;3054072;-69
2021/10/24 09:25:01;;;;;;;11.60;5.80;;;;;;;10.27;46.83;100067.43;27296;1216;3070574;-74
2021/10/24 09:27:31;;;;;;;13.00;5.90;;;;;;;10.44;46.65;100071.69;27240;1216;3026567;-73
2021/10/24 09:30:05;;;;;;;17.40;6.40;;;;;;;10.37;47.19;100066.09;27259;1216;3026971;-69
2021/10/24 09:32:52;;;;;;;14.20;6.00;;;;;;;10.36;47.41;100068.05;27237;1216;3051897;-69
2021/10/24 09:35:36;;;;;;;15.40;5.20;;;;;;;10.37;47.22;100062.40;27274;1216;3056393;-74
2021/10/24 09:38:25;;;;;;;19.30;6.10;;;;;;;10.53;46.52;100061.77;27222;1216;3051715;-66
2021/10/24 09:40:58;;;;;;;11.60;5.20;;;;;;;10.37;46.74;100065.56;27289;1216;3051345;-66
2021/10/24 09:43:31;;;;;;;13.90;4.90;;;;;;;10.26;47.20;100059.58;27309;1216;3026321;-71
2021/10/24 09:46:02;;;;;;;15.40;5.40;;;;;;;10.24;47.36;100056.02;27280;1216;3026587;-68
2021/10/24 09:48:32;;;;;;;22.20;6.00;;;;;;;10.18;47.25;100060.67;27282;1216;3026920;-70
2021/10/24 09:51:12;;;;;;;13.70;5.50;;;;;;;10.10;47.40;100053.56;27361;1216;3026373;-70
2021/10/24 09:53:44;;;;;;;16.70;5.80;;;;;;;10.20;47.25;100054.10;27303;1216;3054659;-73
2021/10/24 09:56:21;;;;;;;13.60;5.00;;;;;;;10.24;47.50;100053.58;27283;1216;3025940;-72
2021/10/24 09:58:55;;;;;;;15.30;6.40;;;;;;;10.26;47.16;100053.65;27245;1216;3049278;-70
2021/10/24 10:01:24;;;;;;;17.30;7.60;;;;;;;10.08;47.56;100051.58;27199;1216;3052993;-70
2021/10/24 10:03:53;;;;;;;19.00;6.50;;;;;;;10.09;47.68;100049.39;27320;1216;3026050;-68
2021/10/24 10:06:23;;;;;;;20.50;6.70;;;;;;;10.07;47.90;100043.53;27286;1216;3048620;-70
2021/10/24 10:08:52;;;;;;;21.00;7.00;;;;;;;10.15;48.04;100045.61;27218;1216;3028377;-72
2021/10/24 10:11:39;;;;;;;22.20;7.90;;;;;;;10.09;48.45;100047.68;27265;1210;3025971;-70
2021/10/24 10:14:28;;;;;;;21.70;6.70;;;;;;;10.12;48.03;100044.19;27242;1216;3049447;-68
2021/10/24 10:17:10;;;;;;;15.90;6.00;;;;;;;10.21;47.39;100049.33;27279;1216;3055706;-69
2021/10/24 10:19:41;;;;;;;18.40;5.50;;;;;;;10.19;47.03;100051.00;27246;1219;3053766;-71
2021/10/24 10:22:28;;;;;;;13.30;5.10;;;;;;;10.26;47.51;100043.33;27241;1219;3025996;-68
2021/10/24 10:25:07;;;;;;;12.30;5.50;;;;;;;10.25;47.77;100043.89;27251;1217;3048301;-74
2021/10/24 10:27:41;;;;;;;22.20;6.10;;;;;;;10.30;47.69;100040.85;27266;1217;3052455;-69
2021/10/24 10:30:30;;;;;;;8.70;4.00;;;;;;;10.35;47.30;100041.64;27219;1216;3052638;-73
2021/10/24 10:33:01;;;;;;;14.60;5.40;;;;;;;10.32;46.88;100041.10;27303;1216;3056433;-74
2021/10/24 10:35:31;;;;;;;12.10;4.90;;;;;;;10.40;46.91;100039.86;27244;1217;3026543;-73
2021/10/24 10:38:03;;;;;;;12.70;4.00;;;;;;;10.47;46.58;100043.71;27246;1209;3025822;-73
2021/10/24 10:40:40;;;;;;;12.10;4.60;;;;;;;10.40;46.61;100039.16;27264;1216;3026727;-65
2021/10/24 10:43:22;;;;;;;16.80;4.40;;;;;;;10.46;46.91;100043.06;27186;1216;3069159;-69
2021/10/24 10:45:58;;;;;;;14.70;4.20;;;;;;;10.53;46.42;100044.59;27272;1216;3051663;-71
2021/10/24 10:48:36;;;;;;;8.60;4.40;;;;;;;10.38;46.91;100043.07;27232;1216;3054936;-68
2021/10/24 10:51:04;;;;;;;12.30;4.70;;;;;;;10.47;46.82;100037.55;27277;1216;3052049;-65
2021/10/24 10:53:37;;;;;;;12.20;5.10;;;;;;;10.44;46.05;100038.59;27214;1216;3028811;-73
2021/10/24 10:56:06;;;;;;;15.70;5.00;;;;;;;10.18;47.01;100037.60;27218;1216;3028751;-70
2021/10/24 10:58:40;;;;;;;19.20;5.30;;;;;;;10.32;46.69;100041.30;27248;1216;3026266;-75
2021/10/24 11:01:31;;;;;;;16.20;5.70;;;;;;;10.28;47.49;100047.26;27252;1217;3057456;-68
2021/10/24 11:04:07;;;;;;;19.20;7.00;;;;;;;10.18;48.34;100035.85;27269;1216;3049452;-69
2021/10/24 11:06:37;;;;;;;19.20;7.20;;;;;;;10.38;47.85;100037.84;27240;1216;3055363;-69
2021/10/24 11:09:11;;;;;;;17.60;7.30;;;;;;;10.43;47.35;100040.23;27243;1216;3026025;-72
2021/10/24 11:11:40;;;;;;;22.50;7.40;;;;;;;10.55;47.47;100043.45;27265;1216;3052236;-69
2021/10/24 11:14:16;;;;;;;19.80;7.40;;;;;;;10.51;47.64;100046.83;27283;1216;3026334;-72
2021/10/24 11:16:45;;;;;;;22.00;7.20;;;;;;;10.45;47.84;100049.89;27276;1217;3052996;-68
2021/10/24 11:19:29;;;;;;;17.70;6.70;;;;;;;10.20;48.33;100052.70;27229;1216;3026682;-66
2021/10/24 11:22:18;;;;;;;;;;;;;;;10.04;48.58;100047.04;27278;1216;3055403;-71
2021/10/24 11:24:52;;;;;;;17.70;6.70;;;;;;;10.14;48.17;100053.00;27239;1216;3053921;-66
2021/10/24 11:27:26;;;;;;;15.20;6.30;;;;;;;10.21;48.26;100055.29;27246;1216;3071538;-67
2021/10/24 11:29:59;;;;;;;13.00;6.50;;;;;;;10.12;48.21;100069.39;27235;1217;3047975;-69
2021/10/24 11:32:35;;;;;;;15.60;6.40;;;;;;;9.86;49.19;100061.55;27269;1217;3051127;-72